sensor_id;sensor_type;location;lat;lon;timestamp;temperature;humidity
21316;DHT22;10817;55.820;13.030;2023-09-19T00:01:33;17.70;99.90
21316;DHT22;10817;55.820;13.030;2023-09-19T00:04:02;17.60;99.90
21316;DHT22;10817;55.820;13.030;2023-09-19T00:06:35;17.60;99.90
21316;DHT22;10817;55.820;13.030;2023-09-19T00:09:03;17.60;99.90
21316;DHT22;10817;55.820;13.030;2023-09-19T00:11:30;17.40;99.90
21316;DHT22;10817;55.820;13.030;2023-09-19T00:13:57;17.50;99.90
21316;DHT22;10817;55.820;13.030;2023-09-19T00:16:26;17.60;99.90
21316;DHT22;10817;55.820;13.030;2023-09-19T00:18:52;17.60;99.90
21316;DHT22;10817;55.820;13.030;2023-09-19T00:21:21;17.60;99.90
21316;DHT22;10817;55.820;13.030;2023-09-19T00:23:47;17.60;99.90
21316;DHT22;10817;55.820;13.030;2023-09-19T00:26:14;17.60;99.90
21316;DHT22;10817;55.820;13.030;2023-09-19T00:28:46;17.60;99.90
21316;DHT22;10817;55.820;13.030;2023-09-19T00:31:13;17.60;99.90
21316;DHT22;10817;55.820;13.030;2023-09-19T00:33:40;17.60;99.90
21316;DHT22;10817;55.820;13.030;2023-09-19T00:36:08;17.90;99.90
21316;DHT22;10817;55.820;13.030;2023-09-19T00:38:36;17.60;99.90
21316;DHT22;10817;55.820;13.030;2023-09-19T00:41:03;17.60;99.90
21316;DHT22;10817;55.820;13.030;2023-09-19T00:43:30;17.70;99.90
21316;DHT22;10817;55.820;13.030;2023-09-19T00:46:00;17.70;99.90
21316;DHT22;10817;55.820;13.030;2023-09-19T00:48:28;17.70;99.90
21316;DHT22;10817;55.820;13.030;2023-09-19T00:50:57;17.70;99.90
21316;DHT22;10817;55.820;13.030;2023-09-19T00:53:25;18.80;99.90
21316;DHT22;10817;55.820;13.030;2023-09-19T00:55:55;17.70;99.90
21316;DHT22;10817;55.820;13.030;2023-09-19T00:58:22;17.70;99.90
21316;DHT22;10817;55.820;13.030;2023-09-19T01:00:49;17.80;99.90
21316;DHT22;10817;55.820;13.030;2023-09-19T01:03:18;17.80;99.90
21316;DHT22;10817;55.820;13.030;2023-09-19T01:05:45;17.90;99.90
21316;DHT22;10817;55.820;13.030;2023-09-19T01:08:12;17.90;99.90
21316;DHT22;10817;55.820;13.030;2023-09-19T01:10:44;18.00;99.90
21316;DHT22;10817;55.820;13.030;2023-09-19T01:13:22;18.10;99.90
21316;DHT22;10817;55.820;13.030;2023-09-19T01:16:01;18.60;99.90
21316;DHT22;10817;55.820;13.030;2023-09-19T01:18:37;18.10;99.90
21316;DHT22;10817;55.820;13.030;2023-09-19T01:21:13;18.20;99.90
21316;DHT22;10817;55.820;13.030;2023-09-19T01:29:39;18.10;99.90
21316;DHT22;10817;55.820;13.030;2023-09-19T01:32:08;18.90;99.90
21316;DHT22;10817;55.820;13.030;2023-09-19T01:34:46;18.00;99.90
21316;DHT22;10817;55.820;13.030;2023-09-19T01:37:17;17.90;99.90
21316;DHT22;10817;55.820;13.030;2023-09-19T01:39:47;17.90;99.90
21316;DHT22;10817;55.820;13.030;2023-09-19T01:42:24;17.90;99.90
21316;DHT22;10817;55.820;13.030;2023-09-19T01:45:02;17.90;99.90
21316;DHT22;10817;55.820;13.030;2023-09-19T01:47:33;17.90;99.90
21316;DHT22;10817;55.820;13.030;2023-09-19T01:50:13;17.90;99.90
21316;DHT22;10817;55.820;13.030;2023-09-19T01:52:48;17.80;99.90
21316;DHT22;10817;55.820;13.030;2023-09-19T01:55:16;17.80;99.90
21316;DHT22;10817;55.820;13.030;2023-09-19T01:57:49;17.80;99.90
21316;DHT22;10817;55.820;13.030;2023-09-19T02:00:20;18.00;99.90
21316;DHT22;10817;55.820;13.030;2023-09-19T02:02:50;17.80;99.90
21316;DHT22;10817;55.820;13.030;2023-09-19T02:05:23;17.80;99.90
21316;DHT22;10817;55.820;13.030;2023-09-19T02:07:51;17.90;99.90
21316;DHT22;10817;55.820;13.030;2023-09-19T02:10:19;17.90;99.90
21316;DHT22;10817;55.820;13.030;2023-09-19T02:12:45;17.90;99.90
21316;DHT22;10817;55.820;13.030;2023-09-19T02:15:13;18.00;99.90
21316;DHT22;10817;55.820;13.030;2023-09-19T02:17:41;17.90;99.90
21316;DHT22;10817;55.820;13.030;2023-09-19T02:20:11;18.00;99.90
21316;DHT22;10817;55.820;13.030;2023-09-19T02:22:40;17.90;99.90
21316;DHT22;10817;55.820;13.030;2023-09-19T02:25:08;17.80;99.90
21316;DHT22;10817;55.820;13.030;2023-09-19T02:27:35;17.90;99.90
21316;DHT22;10817;55.820;13.030;2023-09-19T02:30:03;17.80;99.90
21316;DHT22;10817;55.820;13.030;2023-09-19T02:32:31;17.70;99.90
21316;DHT22;10817;55.820;13.030;2023-09-19T02:35:02;17.90;99.90
21316;DHT22;10817;55.820;13.030;2023-09-19T02:37:31;17.70;99.90
21316;DHT22;10817;55.820;13.030;2023-09-19T02:39:58;17.70;99.90
21316;DHT22;10817;55.820;13.030;2023-09-19T02:42:24;17.60;99.90
21316;DHT22;10817;55.820;13.030;2023-09-19T02:44:51;17.60;99.90
21316;DHT22;10817;55.820;13.030;2023-09-19T02:47:18;17.80;99.90
21316;DHT22;10817;55.820;13.030;2023-09-19T02:49:45;17.50;99.90
21316;DHT22;10817;55.820;13.030;2023-09-19T02:52:11;17.50;99.90
21316;DHT22;10817;55.820;13.030;2023-09-19T02:54:41;17.50;99.90
21316;DHT22;10817;55.820;13.030;2023-09-19T02:57:11;17.50;99.90
21316;DHT22;10817;55.820;13.030;2023-09-19T02:59:39;17.40;99.90
21316;DHT22;10817;55.820;13.030;2023-09-19T03:02:06;17.40;99.90
21316;DHT22;10817;55.820;13.030;2023-09-19T03:04:34;17.40;99.90
21316;DHT22;10817;55.820;13.030;2023-09-19T03:07:00;17.60;99.90
21316;DHT22;10817;55.820;13.030;2023-09-19T03:09:31;17.40;99.90
21316;DHT22;10817;55.820;13.030;2023-09-19T03:11:59;17.40;99.90
21316;DHT22;10817;55.820;13.030;2023-09-19T03:14:29;17.30;99.90
21316;DHT22;10817;55.820;13.030;2023-09-19T03:17:01;17.30;99.90
21316;DHT22;10817;55.820;13.030;2023-09-19T03:19:30;17.20;99.90
21316;DHT22;10817;55.820;13.030;2023-09-19T03:21:59;17.10;99.90
21316;DHT22;10817;55.820;13.030;2023-09-19T03:24:26;17.00;99.90
21316;DHT22;10817;55.820;13.030;2023-09-19T03:26:52;17.00;99.90
21316;DHT22;10817;55.820;13.030;2023-09-19T03:29:21;16.80;99.90
21316;DHT22;10817;55.820;13.030;2023-09-19T03:31:48;16.80;99.90
21316;DHT22;10817;55.820;13.030;2023-09-19T03:34:15;16.80;99.90
21316;DHT22;10817;55.820;13.030;2023-09-19T03:36:41;16.90;99.90
21316;DHT22;10817;55.820;13.030;2023-09-19T03:39:08;16.90;99.90
21316;DHT22;10817;55.820;13.030;2023-09-19T03:41:36;16.90;99.90
21316;DHT22;10817;55.820;13.030;2023-09-19T03:44:03;17.40;99.90
21316;DHT22;10817;55.820;13.030;2023-09-19T03:46:32;17.00;99.90
21316;DHT22;10817;55.820;13.030;2023-09-19T03:49:01;16.90;99.90
21316;DHT22;10817;55.820;13.030;2023-09-19T03:51:28;17.00;99.90
21316;DHT22;10817;55.820;13.030;2023-09-19T03:53:55;17.00;99.90
21316;DHT22;10817;55.820;13.030;2023-09-19T03:56:22;17.00;99.90
21316;DHT22;10817;55.820;13.030;2023-09-19T03:58:49;17.10;99.90
21316;DHT22;10817;55.820;13.030;2023-09-19T04:01:16;17.10;99.90
21316;DHT22;10817;55.820;13.030;2023-09-19T04:03:45;17.10;99.90
21316;DHT22;10817;55.820;13.030;2023-09-19T04:06:13;17.10;99.90
21316;DHT22;10817;55.820;13.030;2023-09-19T04:08:40;17.10;99.90
21316;DHT22;10817;55.820;13.030;2023-09-19T04:11:07;17.10;99.90
21316;DHT22;10817;55.820;13.030;2023-09-19T04:13:34;17.10;99.90
21316;DHT22;10817;55.820;13.030;2023-09-19T04:16:01;17.20;99.90
21316;DHT22;10817;55.820;13.030;2023-09-19T04:18:29;17.20;99.90
21316;DHT22;10817;55.820;13.030;2023-09-19T04:21:00;17.10;99.90
21316;DHT22;10817;55.820;13.030;2023-09-19T04:23:29;17.10;99.90
21316;DHT22;10817;55.820;13.030;2023-09-19T04:25:57;17.10;99.90
21316;DHT22;10817;55.820;13.030;2023-09-19T04:28:24;17.00;99.90
21316;DHT22;10817;55.820;13.030;2023-09-19T04:30:53;17.00;99.90
21316;DHT22;10817;55.820;13.030;2023-09-19T04:33:20;17.00;99.90
21316;DHT22;10817;55.820;13.030;2023-09-19T04:35:49;17.00;99.90
21316;DHT22;10817;55.820;13.030;2023-09-19T04:38:17;17.00;99.90
21316;DHT22;10817;55.820;13.030;2023-09-19T04:40:44;17.00;99.90
21316;DHT22;10817;55.820;13.030;2023-09-19T04:43:11;17.10;99.90
21316;DHT22;10817;55.820;13.030;2023-09-19T04:45:38;17.10;99.90
21316;DHT22;10817;55.820;13.030;2023-09-19T04:48:06;17.00;99.90
21316;DHT22;10817;55.820;13.030;2023-09-19T04:50:34;17.00;99.90
21316;DHT22;10817;55.820;13.030;2023-09-19T04:53:02;16.90;99.90
21316;DHT22;10817;55.820;13.030;2023-09-19T04:55:31;16.90;99.90
21316;DHT22;10817;55.820;13.030;2023-09-19T04:57:58;16.90;99.90
21316;DHT22;10817;55.820;13.030;2023-09-19T05:00:25;17.00;99.90
21316;DHT22;10817;55.820;13.030;2023-09-19T05:02:56;17.00;99.90
21316;DHT22;10817;55.820;13.030;2023-09-19T05:05:23;16.90;99.90
21316;DHT22;10817;55.820;13.030;2023-09-19T05:07:51;16.80;99.90
21316;DHT22;10817;55.820;13.030;2023-09-19T05:10:20;16.80;99.90
21316;DHT22;10817;55.820;13.030;2023-09-19T05:12:48;16.80;99.90
21316;DHT22;10817;55.820;13.030;2023-09-19T05:15:17;16.90;99.90
21316;DHT22;10817;55.820;13.030;2023-09-19T05:17:48;17.00;99.90
21316;DHT22;10817;55.820;13.030;2023-09-19T05:20:15;16.90;99.90
21316;DHT22;10817;55.820;13.030;2023-09-19T05:22:44;16.90;99.90
21316;DHT22;10817;55.820;13.030;2023-09-19T05:25:12;16.90;99.90
21316;DHT22;10817;55.820;13.030;2023-09-19T05:27:41;16.80;99.90
21316;DHT22;10817;55.820;13.030;2023-09-19T05:30:13;17.60;99.90
21316;DHT22;10817;55.820;13.030;2023-09-19T05:32:47;16.70;99.90
21316;DHT22;10817;55.820;13.030;2023-09-19T05:35:14;16.80;99.90
21316;DHT22;10817;55.820;13.030;2023-09-19T05:37:41;16.80;99.90
21316;DHT22;10817;55.820;13.030;2023-09-19T05:40:09;16.80;99.90
21316;DHT22;10817;55.820;13.030;2023-09-19T05:42:38;16.70;99.90
21316;DHT22;10817;55.820;13.030;2023-09-19T05:45:09;16.60;99.90
21316;DHT22;10817;55.820;13.030;2023-09-19T05:47:39;16.60;99.90
21316;DHT22;10817;55.820;13.030;2023-09-19T05:50:11;16.60;99.90
21316;DHT22;10817;55.820;13.030;2023-09-19T05:52:38;16.60;99.90
21316;DHT22;10817;55.820;13.030;2023-09-19T05:55:12;16.60;99.90
21316;DHT22;10817;55.820;13.030;2023-09-19T05:57:40;16.70;99.90
21316;DHT22;10817;55.820;13.030;2023-09-19T06:00:08;17.30;99.90
21316;DHT22;10817;55.820;13.030;2023-09-19T06:02:51;16.70;99.90
21316;DHT22;10817;55.820;13.030;2023-09-19T06:05:28;16.70;99.90
21316;DHT22;10817;55.820;13.030;2023-09-19T06:08:00;16.60;99.90
21316;DHT22;10817;55.820;13.030;2023-09-19T06:10:33;17.60;99.90
21316;DHT22;10817;55.820;13.030;2023-09-19T06:13:01;16.60;99.90
21316;DHT22;10817;55.820;13.030;2023-09-19T06:15:30;16.60;99.90
21316;DHT22;10817;55.820;13.030;2023-09-19T06:18:00;17.50;99.90
21316;DHT22;10817;55.820;13.030;2023-09-19T06:20:28;16.70;99.90
21316;DHT22;10817;55.820;13.030;2023-09-19T06:22:55;17.60;99.90
21316;DHT22;10817;55.820;13.030;2023-09-19T06:25:22;16.90;99.90
21316;DHT22;10817;55.820;13.030;2023-09-19T06:27:50;16.90;99.90
21316;DHT22;10817;55.820;13.030;2023-09-19T06:30:19;17.30;99.90
21316;DHT22;10817;55.820;13.030;2023-09-19T06:32:47;16.90;99.90
21316;DHT22;10817;55.820;13.030;2023-09-19T06:35:16;16.80;99.90
21316;DHT22;10817;55.820;13.030;2023-09-19T06:37:46;18.00;99.90
21316;DHT22;10817;55.820;13.030;2023-09-19T06:40:14;16.80;99.90
21316;DHT22;10817;55.820;13.030;2023-09-19T06:42:41;16.70;99.90
21316;DHT22;10817;55.820;13.030;2023-09-19T06:45:10;16.60;99.90
21316;DHT22;10817;55.820;13.030;2023-09-19T06:47:39;16.60;99.90
21316;DHT22;10817;55.820;13.030;2023-09-19T06:50:06;16.60;99.90
21316;DHT22;10817;55.820;13.030;2023-09-19T06:52:43;16.40;99.90
21316;DHT22;10817;55.820;13.030;2023-09-19T06:55:23;16.80;99.90
21316;DHT22;10817;55.820;13.030;2023-09-19T06:57:50;16.30;99.90
21316;DHT22;10817;55.820;13.030;2023-09-19T07:00:20;16.40;99.90
21316;DHT22;10817;55.820;13.030;2023-09-19T07:02:55;16.60;99.90
21316;DHT22;10817;55.820;13.030;2023-09-19T07:05:23;16.70;99.90
21316;DHT22;10817;55.820;13.030;2023-09-19T07:07:51;17.50;99.90
21316;DHT22;10817;55.820;13.030;2023-09-19T07:10:18;16.50;99.90
21316;DHT22;10817;55.820;13.030;2023-09-19T07:12:45;16.50;99.90
21316;DHT22;10817;55.820;13.030;2023-09-19T07:15:15;16.90;99.90
21316;DHT22;10817;55.820;13.030;2023-09-19T07:17:42;16.60;99.90
21316;DHT22;10817;55.820;13.030;2023-09-19T07:20:09;16.60;99.90
21316;DHT22;10817;55.820;13.030;2023-09-19T07:22:41;16.80;99.90
21316;DHT22;10817;55.820;13.030;2023-09-19T07:25:10;16.90;99.90
21316;DHT22;10817;55.820;13.030;2023-09-19T07:27:37;16.90;99.90
21316;DHT22;10817;55.820;13.030;2023-09-19T07:30:04;16.80;99.90
21316;DHT22;10817;55.820;13.030;2023-09-19T07:32:31;16.70;99.90
21316;DHT22;10817;55.820;13.030;2023-09-19T07:34:58;16.60;99.90
21316;DHT22;10817;55.820;13.030;2023-09-19T07:37:25;16.60;99.90
21316;DHT22;10817;55.820;13.030;2023-09-19T07:39:52;16.70;99.90
21316;DHT22;10817;55.820;13.030;2023-09-19T07:42:20;16.70;99.90
21316;DHT22;10817;55.820;13.030;2023-09-19T07:44:47;16.60;99.90
21316;DHT22;10817;55.820;13.030;2023-09-19T07:47:16;16.50;99.90
21316;DHT22;10817;55.820;13.030;2023-09-19T07:49:46;16.50;99.90
21316;DHT22;10817;55.820;13.030;2023-09-19T07:52:13;16.40;99.90
21316;DHT22;10817;55.820;13.030;2023-09-19T07:54:41;16.40;99.90
21316;DHT22;10817;55.820;13.030;2023-09-19T07:57:10;16.50;99.90
21316;DHT22;10817;55.820;13.030;2023-09-19T07:59:38;16.70;99.90
21316;DHT22;10817;55.820;13.030;2023-09-19T08:02:08;16.80;99.90
21316;DHT22;10817;55.820;13.030;2023-09-19T08:04:41;16.90;99.90
21316;DHT22;10817;55.820;13.030;2023-09-19T08:07:08;17.10;99.90
21316;DHT22;10817;55.820;13.030;2023-09-19T08:09:36;18.40;99.90
21316;DHT22;10817;55.820;13.030;2023-09-19T08:12:04;17.20;99.90
21316;DHT22;10817;55.820;13.030;2023-09-19T08:14:33;17.30;99.90
21316;DHT22;10817;55.820;13.030;2023-09-19T08:17:01;17.50;99.90
21316;DHT22;10817;55.820;13.030;2023-09-19T08:19:30;17.50;99.90
21316;DHT22;10817;55.820;13.030;2023-09-19T08:21:57;17.30;99.90
21316;DHT22;10817;55.820;13.030;2023-09-19T08:24:25;17.30;99.90
21316;DHT22;10817;55.820;13.030;2023-09-19T08:26:54;17.40;99.90
21316;DHT22;10817;55.820;13.030;2023-09-19T08:29:21;17.30;99.90
21316;DHT22;10817;55.820;13.030;2023-09-19T08:31:54;17.40;99.90
21316;DHT22;10817;55.820;13.030;2023-09-19T08:34:22;17.60;99.90
21316;DHT22;10817;55.820;13.030;2023-09-19T08:36:50;19.00;99.90
21316;DHT22;10817;55.820;13.030;2023-09-19T08:39:18;17.50;99.90
21316;DHT22;10817;55.820;13.030;2023-09-19T08:41:45;17.40;99.90
21316;DHT22;10817;55.820;13.030;2023-09-19T08:44:12;17.30;99.90
21316;DHT22;10817;55.820;13.030;2023-09-19T08:46:41;17.20;99.90
21316;DHT22;10817;55.820;13.030;2023-09-19T08:49:13;18.70;99.90
21316;DHT22;10817;55.820;13.030;2023-09-19T08:51:54;16.90;99.90
21316;DHT22;10817;55.820;13.030;2023-09-19T08:54:25;18.50;99.90
21316;DHT22;10817;55.820;13.030;2023-09-19T08:56:54;16.20;99.90
21316;DHT22;10817;55.820;13.030;2023-09-19T08:59:22;15.80;99.90
21316;DHT22;10817;55.820;13.030;2023-09-19T09:01:51;15.40;99.90
21316;DHT22;10817;55.820;13.030;2023-09-19T09:04:19;14.90;99.90
21316;DHT22;10817;55.820;13.030;2023-09-19T09:06:46;14.50;99.90
21316;DHT22;10817;55.820;13.030;2023-09-19T09:09:20;14.20;99.90
21316;DHT22;10817;55.820;13.030;2023-09-19T09:11:48;14.50;99.90
21316;DHT22;10817;55.820;13.030;2023-09-19T09:14:19;13.90;99.90
21316;DHT22;10817;55.820;13.030;2023-09-19T09:16:47;13.90;99.90
21316;DHT22;10817;55.820;13.030;2023-09-19T09:19:14;15.20;99.90
21316;DHT22;10817;55.820;13.030;2023-09-19T09:21:49;15.50;99.90
21316;DHT22;10817;55.820;13.030;2023-09-19T09:24:28;14.00;99.90
21316;DHT22;10817;55.820;13.030;2023-09-19T09:26:56;14.00;99.90
21316;DHT22;10817;55.820;13.030;2023-09-19T09:29:43;14.10;99.90
21316;DHT22;10817;55.820;13.030;2023-09-19T09:32:17;14.30;99.90
21316;DHT22;10817;55.820;13.030;2023-09-19T09:34:45;14.40;99.90
21316;DHT22;10817;55.820;13.030;2023-09-19T09:37:14;14.70;99.90
21316;DHT22;10817;55.820;13.030;2023-09-19T09:39:49;15.10;99.90
21316;DHT22;10817;55.820;13.030;2023-09-19T09:42:29;15.60;99.90
21316;DHT22;10817;55.820;13.030;2023-09-19T09:45:12;15.30;99.90
21316;DHT22;10817;55.820;13.030;2023-09-19T09:47:44;15.30;99.90
21316;DHT22;10817;55.820;13.030;2023-09-19T09:50:27;15.30;99.90
21316;DHT22;10817;55.820;13.030;2023-09-19T09:53:20;15.30;99.90
21316;DHT22;10817;55.820;13.030;2023-09-19T09:55:59;15.30;99.90
21316;DHT22;10817;55.820;13.030;2023-09-19T09:58:26;15.40;99.90
21316;DHT22;10817;55.820;13.030;2023-09-19T10:00:56;15.50;99.90
21316;DHT22;10817;55.820;13.030;2023-09-19T10:03:32;15.70;99.90
21316;DHT22;10817;55.820;13.030;2023-09-19T10:06:00;16.20;99.90
21316;DHT22;10817;55.820;13.030;2023-09-19T10:08:35;16.70;99.90
21316;DHT22;10817;55.820;13.030;2023-09-19T10:11:16;18.70;99.90
21316;DHT22;10817;55.820;13.030;2023-09-19T10:13:46;17.30;99.90
21316;DHT22;10817;55.820;13.030;2023-09-19T10:16:13;17.30;99.90
21316;DHT22;10817;55.820;13.030;2023-09-19T10:18:46;17.20;99.90
21316;DHT22;10817;55.820;13.030;2023-09-19T10:21:15;18.00;99.90
21316;DHT22;10817;55.820;13.030;2023-09-19T10:23:48;17.40;99.90
21316;DHT22;10817;55.820;13.030;2023-09-19T10:26:19;17.50;99.90
21316;DHT22;10817;55.820;13.030;2023-09-19T10:28:50;18.90;99.90
21316;DHT22;10817;55.820;13.030;2023-09-19T10:31:20;17.50;99.90
21316;DHT22;10817;55.820;13.030;2023-09-19T10:33:50;17.60;99.90
21316;DHT22;10817;55.820;13.030;2023-09-19T10:36:18;18.50;99.90
21316;DHT22;10817;55.820;13.030;2023-09-19T10:38:56;19.10;99.90
21316;DHT22;10817;55.820;13.030;2023-09-19T10:41:29;19.20;99.90
21316;DHT22;10817;55.820;13.030;2023-09-19T10:43:57;19.00;99.90
21316;DHT22;10817;55.820;13.030;2023-09-19T10:46:25;19.30;99.90
21316;DHT22;10817;55.820;13.030;2023-09-19T10:48:52;19.90;99.90
21316;DHT22;10817;55.820;13.030;2023-09-19T10:51:22;19.40;99.90
21316;DHT22;10817;55.820;13.030;2023-09-19T10:53:52;19.50;99.90
21316;DHT22;10817;55.820;13.030;2023-09-19T10:56:23;18.90;99.90
21316;DHT22;10817;55.820;13.030;2023-09-19T10:59:07;17.70;99.90
21316;DHT22;10817;55.820;13.030;2023-09-19T11:01:42;17.40;99.90
21316;DHT22;10817;55.820;13.030;2023-09-19T11:04:24;17.70;99.90
21316;DHT22;10817;55.820;13.030;2023-09-19T11:07:05;17.50;99.90
21316;DHT22;10817;55.820;13.030;2023-09-19T11:09:44;17.30;99.90
21316;DHT22;10817;55.820;13.030;2023-09-19T11:12:12;16.90;99.90
21316;DHT22;10817;55.820;13.030;2023-09-19T11:15:03;17.60;99.90
21316;DHT22;10817;55.820;13.030;2023-09-19T11:17:33;16.30;99.90
21316;DHT22;10817;55.820;13.030;2023-09-19T11:20:22;16.40;99.90
21316;DHT22;10817;55.820;13.030;2023-09-19T11:23:20;18.00;99.90
21316;DHT22;10817;55.820;13.030;2023-09-19T11:25:52;19.20;99.90
21316;DHT22;10817;55.820;13.030;2023-09-19T11:28:35;19.80;99.90
21316;DHT22;10817;55.820;13.030;2023-09-19T11:34:41;19.00;99.90
21316;DHT22;10817;55.820;13.030;2023-09-19T11:40:46;18.70;99.90
21316;DHT22;10817;55.820;13.030;2023-09-19T11:43:31;18.90;99.90
21316;DHT22;10817;55.820;13.030;2023-09-19T11:46:03;19.90;99.90
21316;DHT22;10817;55.820;13.030;2023-09-19T11:48:32;21.10;99.90
21316;DHT22;10817;55.820;13.030;2023-09-19T11:51:03;22.10;99.90
21316;DHT22;10817;55.820;13.030;2023-09-19T11:53:40;22.10;99.90
21316;DHT22;10817;55.820;13.030;2023-09-19T11:56:09;21.90;99.90
21316;DHT22;10817;55.820;13.030;2023-09-19T11:58:37;21.60;99.90
21316;DHT22;10817;55.820;13.030;2023-09-19T12:01:05;20.70;99.90
21316;DHT22;10817;55.820;13.030;2023-09-19T12:03:35;19.80;99.90
21316;DHT22;10817;55.820;13.030;2023-09-19T12:06:12;19.50;99.90
21316;DHT22;10817;55.820;13.030;2023-09-19T12:08:41;19.80;99.90
21316;DHT22;10817;55.820;13.030;2023-09-19T12:11:13;20.00;99.90
21316;DHT22;10817;55.820;13.030;2023-09-19T12:13:46;19.20;99.90
21316;DHT22;10817;55.820;13.030;2023-09-19T12:16:15;18.70;99.90
21316;DHT22;10817;55.820;13.030;2023-09-19T12:18:43;19.20;99.90
21316;DHT22;10817;55.820;13.030;2023-09-19T12:21:24;18.60;99.90
21316;DHT22;10817;55.820;13.030;2023-09-19T12:24:13;18.10;99.90
21316;DHT22;10817;55.820;13.030;2023-09-19T12:26:45;18.30;99.90
21316;DHT22;10817;55.820;13.030;2023-09-19T12:29:15;18.10;99.90
21316;DHT22;10817;55.820;13.030;2023-09-19T12:31:53;17.90;99.90
21316;DHT22;10817;55.820;13.030;2023-09-19T12:34:24;17.90;99.90
21316;DHT22;10817;55.820;13.030;2023-09-19T12:37:07;17.50;99.90
21316;DHT22;10817;55.820;13.030;2023-09-19T12:39:39;17.40;99.90
21316;DHT22;10817;55.820;13.030;2023-09-19T12:42:08;18.50;99.90
21316;DHT22;10817;55.820;13.030;2023-09-19T12:44:37;17.50;99.90
21316;DHT22;10817;55.820;13.030;2023-09-19T12:47:12;16.60;99.90
21316;DHT22;10817;55.820;13.030;2023-09-19T12:50:06;17.40;99.90
21316;DHT22;10817;55.820;13.030;2023-09-19T12:52:41;17.50;99.90
21316;DHT22;10817;55.820;13.030;2023-09-19T12:55:20;17.60;99.90
21316;DHT22;10817;55.820;13.030;2023-09-19T12:57:59;18.40;99.90
21316;DHT22;10817;55.820;13.030;2023-09-19T13:00:36;17.80;99.90
21316;DHT22;10817;55.820;13.030;2023-09-19T13:03:13;17.80;99.90
21316;DHT22;10817;55.820;13.030;2023-09-19T13:05:51;17.70;99.90
21316;DHT22;10817;55.820;13.030;2023-09-19T13:08:23;17.40;99.90
21316;DHT22;10817;55.820;13.030;2023-09-19T13:11:09;18.10;99.90
21316;DHT22;10817;55.820;13.030;2023-09-19T13:13:39;17.00;99.90
21316;DHT22;10817;55.820;13.030;2023-09-19T13:16:07;16.90;99.90
21316;DHT22;10817;55.820;13.030;2023-09-19T13:18:47;18.50;99.90
21316;DHT22;10817;55.820;13.030;2023-09-19T13:21:17;16.70;99.90
21316;DHT22;10817;55.820;13.030;2023-09-19T13:23:55;16.60;99.90
21316;DHT22;10817;55.820;13.030;2023-09-19T13:26:25;16.40;99.90
21316;DHT22;10817;55.820;13.030;2023-09-19T13:28:51;16.10;99.90
21316;DHT22;10817;55.820;13.030;2023-09-19T13:31:18;15.80;99.90
21316;DHT22;10817;55.820;13.030;2023-09-19T13:33:51;15.20;99.90
21316;DHT22;10817;55.820;13.030;2023-09-19T13:36:18;15.40;99.90
21316;DHT22;10817;55.820;13.030;2023-09-19T13:38:55;15.10;99.90
21316;DHT22;10817;55.820;13.030;2023-09-19T13:41:24;13.60;99.90
21316;DHT22;10817;55.820;13.030;2023-09-19T13:43:51;15.10;99.90
21316;DHT22;10817;55.820;13.030;2023-09-19T13:46:22;14.20;99.90
21316;DHT22;10817;55.820;13.030;2023-09-19T13:48:53;14.20;99.90
21316;DHT22;10817;55.820;13.030;2023-09-19T13:51:20;14.40;99.90
21316;DHT22;10817;55.820;13.030;2023-09-19T13:53:55;14.50;99.90
21316;DHT22;10817;55.820;13.030;2023-09-19T13:56:39;14.70;99.90
21316;DHT22;10817;55.820;13.030;2023-09-19T13:59:11;14.90;99.90
21316;DHT22;10817;55.820;13.030;2023-09-19T14:01:41;15.20;99.90
21316;DHT22;10817;55.820;13.030;2023-09-19T14:04:11;16.70;99.90
21316;DHT22;10817;55.820;13.030;2023-09-19T14:06:41;15.90;99.90
21316;DHT22;10817;55.820;13.030;2023-09-19T14:09:09;16.40;99.90
21316;DHT22;10817;55.820;13.030;2023-09-19T14:11:37;17.60;99.90
21316;DHT22;10817;55.820;13.030;2023-09-19T14:14:04;18.70;99.90
21316;DHT22;10817;55.820;13.030;2023-09-19T14:16:31;18.00;99.90
21316;DHT22;10817;55.820;13.030;2023-09-19T14:18:59;16.70;99.90
21316;DHT22;10817;55.820;13.030;2023-09-19T14:21:26;16.40;99.90
21316;DHT22;10817;55.820;13.030;2023-09-19T14:23:52;16.20;99.90
21316;DHT22;10817;55.820;13.030;2023-09-19T14:26:21;16.50;99.90
21316;DHT22;10817;55.820;13.030;2023-09-19T14:28:49;16.00;99.90
21316;DHT22;10817;55.820;13.030;2023-09-19T14:31:16;15.90;99.90
21316;DHT22;10817;55.820;13.030;2023-09-19T14:33:43;15.80;99.90
21316;DHT22;10817;55.820;13.030;2023-09-19T14:36:10;15.80;99.90
21316;DHT22;10817;55.820;13.030;2023-09-19T14:38:38;15.70;99.90
21316;DHT22;10817;55.820;13.030;2023-09-19T14:41:05;15.70;99.90
21316;DHT22;10817;55.820;13.030;2023-09-19T14:43:34;17.10;99.90
21316;DHT22;10817;55.820;13.030;2023-09-19T14:46:03;15.60;99.90
21316;DHT22;10817;55.820;13.030;2023-09-19T14:48:29;15.60;99.90
21316;DHT22;10817;55.820;13.030;2023-09-19T14:51:01;15.60;99.90
21316;DHT22;10817;55.820;13.030;2023-09-19T14:53:29;15.60;99.90
21316;DHT22;10817;55.820;13.030;2023-09-19T14:55:55;15.60;99.90
21316;DHT22;10817;55.820;13.030;2023-09-19T14:58:23;16.40;99.90
21316;DHT22;10817;55.820;13.030;2023-09-19T15:01:12;15.60;99.90
21316;DHT22;10817;55.820;13.030;2023-09-19T15:03:53;15.70;99.90
21316;DHT22;10817;55.820;13.030;2023-09-19T15:06:21;17.40;99.90
21316;DHT22;10817;55.820;13.030;2023-09-19T15:08:48;15.80;99.90
21316;DHT22;10817;55.820;13.030;2023-09-19T15:11:16;15.80;99.90
21316;DHT22;10817;55.820;13.030;2023-09-19T15:13:50;15.80;99.90
21316;DHT22;10817;55.820;13.030;2023-09-19T15:16:21;15.80;99.90
21316;DHT22;10817;55.820;13.030;2023-09-19T15:18:51;17.10;99.90
21316;DHT22;10817;55.820;13.030;2023-09-19T15:21:21;17.50;99.90
21316;DHT22;10817;55.820;13.030;2023-09-19T15:23:52;15.60;99.90
21316;DHT22;10817;55.820;13.030;2023-09-19T15:26:19;15.80;99.90
21316;DHT22;10817;55.820;13.030;2023-09-19T15:28:48;15.60;99.90
21316;DHT22;10817;55.820;13.030;2023-09-19T15:31:17;15.70;99.90
21316;DHT22;10817;55.820;13.030;2023-09-19T15:33:57;15.80;99.90
21316;DHT22;10817;55.820;13.030;2023-09-19T15:36:27;17.20;99.90
21316;DHT22;10817;55.820;13.030;2023-09-19T15:38:59;17.00;99.90
21316;DHT22;10817;55.820;13.030;2023-09-19T15:41:29;16.20;99.90
21316;DHT22;10817;55.820;13.030;2023-09-19T15:43:57;16.20;99.90
21316;DHT22;10817;55.820;13.030;2023-09-19T15:46:27;16.20;99.90
21316;DHT22;10817;55.820;13.030;2023-09-19T15:48:57;17.30;99.90